Terminal Aerodrome Forecast
Issued by NWS Topeka, KS

Home | Current Version | Previous Version | Text Only | Print | Product List | Glossary On
Versions: 1 2 3 4 5 6 7 8 9 10 11 12 13 14
000
FTUS43 KTOP 210500
TAFTOP
TAF
KTOP 210520Z 2106/2206 00000KT 2SM BR MIFG SKC
     FM210700 32006KT P6SM SKC
     FM211800 35012G19KT P6SM SKC
     FM212300 34006KT P6SM SKC=

USA.gov is the U.S. government's official web portal to all federal, state and local government web resources and services.